sensor_id;sensor_type;location;lat;lon;timestamp;P1;durP1;ratioP1;P2;durP2;ratioP2
73550;SDS011;61816;53.582;10.096;2024-01-10T00:00:29;98.43;;;43.03;;
73550;SDS011;61816;53.582;10.096;2024-01-10T00:02:59;111.03;;;49.37;;
73550;SDS011;61816;53.582;10.096;2024-01-10T00:05:25;115.47;;;47.20;;
73550;SDS011;61816;53.582;10.096;2024-01-10T00:07:50;107.93;;;45.83;;
73550;SDS011;61816;53.582;10.096;2024-01-10T00:10:16;103.37;;;47.10;;
73550;SDS011;61816;53.582;10.096;2024-01-10T00:12:41;108.30;;;47.57;;
73550;SDS011;61816;53.582;10.096;2024-01-10T00:15:09;91.10;;;41.17;;
73550;SDS011;61816;53.582;10.096;2024-01-10T00:17:34;98.83;;;42.93;;
73550;SDS011;61816;53.582;10.096;2024-01-10T00:20:00;98.60;;;45.27;;
73550;SDS011;61816;53.582;10.096;2024-01-10T00:22:25;95.20;;;43.33;;
73550;SDS011;61816;53.582;10.096;2024-01-10T00:24:50;95.97;;;40.83;;
73550;SDS011;61816;53.582;10.096;2024-01-10T00:27:16;94.40;;;40.37;;
73550;SDS011;61816;53.582;10.096;2024-01-10T00:29:41;88.60;;;39.47;;
73550;SDS011;61816;53.582;10.096;2024-01-10T00:32:06;94.40;;;42.73;;
73550;SDS011;61816;53.582;10.096;2024-01-10T00:34:32;96.37;;;45.10;;
73550;SDS011;61816;53.582;10.096;2024-01-10T00:36:57;107.57;;;43.43;;
73550;SDS011;61816;53.582;10.096;2024-01-10T00:39:22;91.07;;;41.30;;
73550;SDS011;61816;53.582;10.096;2024-01-10T00:41:48;97.30;;;42.93;;
73550;SDS011;61816;53.582;10.096;2024-01-10T00:44:13;98.80;;;41.87;;
73550;SDS011;61816;53.582;10.096;2024-01-10T00:46:38;88.40;;;40.07;;
73550;SDS011;61816;53.582;10.096;2024-01-10T00:49:04;102.83;;;44.47;;
73550;SDS011;61816;53.582;10.096;2024-01-10T00:51:29;86.20;;;39.87;;
73550;SDS011;61816;53.582;10.096;2024-01-10T00:53:54;88.13;;;39.03;;
73550;SDS011;61816;53.582;10.096;2024-01-10T00:56:20;86.30;;;38.13;;
73550;SDS011;61816;53.582;10.096;2024-01-10T00:58:45;93.03;;;41.83;;
73550;SDS011;61816;53.582;10.096;2024-01-10T01:01:10;102.60;;;43.30;;
73550;SDS011;61816;53.582;10.096;2024-01-10T01:03:36;109.60;;;44.00;;
73550;SDS011;61816;53.582;10.096;2024-01-10T01:06:01;96.30;;;41.70;;
73550;SDS011;61816;53.582;10.096;2024-01-10T01:08:26;104.47;;;44.73;;
73550;SDS011;61816;53.582;10.096;2024-01-10T01:10:52;99.90;;;43.03;;
73550;SDS011;61816;53.582;10.096;2024-01-10T01:13:17;103.40;;;44.60;;
73550;SDS011;61816;53.582;10.096;2024-01-10T01:15:43;91.23;;;38.40;;
73550;SDS011;61816;53.582;10.096;2024-01-10T01:18:08;97.50;;;41.80;;
73550;SDS011;61816;53.582;10.096;2024-01-10T01:20:35;97.60;;;42.40;;
73550;SDS011;61816;53.582;10.096;2024-01-10T01:23:00;127.17;;;47.47;;
73550;SDS011;61816;53.582;10.096;2024-01-10T01:25:26;126.40;;;49.40;;
73550;SDS011;61816;53.582;10.096;2024-01-10T01:27:54;123.33;;;49.90;;
73550;SDS011;61816;53.582;10.096;2024-01-10T01:30:22;129.93;;;51.90;;
73550;SDS011;61816;53.582;10.096;2024-01-10T01:32:47;153.67;;;54.20;;
73550;SDS011;61816;53.582;10.096;2024-01-10T01:35:12;115.17;;;44.43;;
73550;SDS011;61816;53.582;10.096;2024-01-10T01:37:38;147.13;;;45.97;;
73550;SDS011;61816;53.582;10.096;2024-01-10T01:40:04;122.73;;;41.10;;
73550;SDS011;61816;53.582;10.096;2024-01-10T01:42:30;136.10;;;45.33;;
73550;SDS011;61816;53.582;10.096;2024-01-10T01:44:55;194.27;;;50.57;;
73550;SDS011;61816;53.582;10.096;2024-01-10T01:47:20;184.00;;;52.00;;
73550;SDS011;61816;53.582;10.096;2024-01-10T01:49:46;200.27;;;48.97;;
73550;SDS011;61816;53.582;10.096;2024-01-10T01:52:12;158.83;;;44.20;;
73550;SDS011;61816;53.582;10.096;2024-01-10T01:54:37;148.60;;;46.03;;
73550;SDS011;61816;53.582;10.096;2024-01-10T01:57:03;237.23;;;54.80;;
73550;SDS011;61816;53.582;10.096;2024-01-10T01:59:29;199.80;;;43.53;;
73550;SDS011;61816;53.582;10.096;2024-01-10T02:01:54;160.80;;;46.27;;
73550;SDS011;61816;53.582;10.096;2024-01-10T02:04:23;142.90;;;45.60;;
73550;SDS011;61816;53.582;10.096;2024-01-10T02:06:49;153.70;;;50.50;;
73550;SDS011;61816;53.582;10.096;2024-01-10T02:09:17;188.67;;;43.40;;
73550;SDS011;61816;53.582;10.096;2024-01-10T02:11:43;189.27;;;49.87;;
73550;SDS011;61816;53.582;10.096;2024-01-10T02:14:08;158.67;;;45.60;;
73550;SDS011;61816;53.582;10.096;2024-01-10T02:16:35;132.97;;;42.80;;
73550;SDS011;61816;53.582;10.096;2024-01-10T02:19:17;139.17;;;46.97;;
73550;SDS011;61816;53.582;10.096;2024-01-10T02:21:46;175.47;;;45.27;;
73550;SDS011;61816;53.582;10.096;2024-01-10T02:24:11;125.27;;;43.33;;
73550;SDS011;61816;53.582;10.096;2024-01-10T02:26:36;116.70;;;38.63;;
73550;SDS011;61816;53.582;10.096;2024-01-10T02:29:02;174.50;;;44.73;;
73550;SDS011;61816;53.582;10.096;2024-01-10T02:31:27;105.83;;;38.37;;
73550;SDS011;61816;53.582;10.096;2024-01-10T02:33:56;121.50;;;38.77;;
73550;SDS011;61816;53.582;10.096;2024-01-10T02:36:21;100.53;;;39.00;;
73550;SDS011;61816;53.582;10.096;2024-01-10T02:38:47;106.30;;;37.83;;
73550;SDS011;61816;53.582;10.096;2024-01-10T02:41:13;102.80;;;36.77;;
73550;SDS011;61816;53.582;10.096;2024-01-10T02:43:38;114.70;;;39.00;;
73550;SDS011;61816;53.582;10.096;2024-01-10T02:46:04;86.00;;;34.13;;
73550;SDS011;61816;53.582;10.096;2024-01-10T02:48:29;72.67;;;30.27;;
73550;SDS011;61816;53.582;10.096;2024-01-10T02:50:55;89.97;;;32.80;;
73550;SDS011;61816;53.582;10.096;2024-01-10T02:53:21;96.43;;;35.33;;
73550;SDS011;61816;53.582;10.096;2024-01-10T02:55:46;85.73;;;32.23;;
73550;SDS011;61816;53.582;10.096;2024-01-10T02:58:13;90.07;;;34.83;;
73550;SDS011;61816;53.582;10.096;2024-01-10T03:00:38;80.90;;;32.60;;
73550;SDS011;61816;53.582;10.096;2024-01-10T03:03:04;86.90;;;35.60;;
73550;SDS011;61816;53.582;10.096;2024-01-10T03:05:29;98.33;;;38.40;;
73550;SDS011;61816;53.582;10.096;2024-01-10T03:07:55;86.63;;;36.23;;
73550;SDS011;61816;53.582;10.096;2024-01-10T03:10:20;102.43;;;37.20;;
73550;SDS011;61816;53.582;10.096;2024-01-10T03:12:48;83.37;;;35.70;;
73550;SDS011;61816;53.582;10.096;2024-01-10T03:15:13;101.60;;;38.77;;
73550;SDS011;61816;53.582;10.096;2024-01-10T03:17:41;96.13;;;40.20;;
73550;SDS011;61816;53.582;10.096;2024-01-10T03:20:06;102.53;;;39.97;;
73550;SDS011;61816;53.582;10.096;2024-01-10T03:22:33;97.47;;;37.90;;
73550;SDS011;61816;53.582;10.096;2024-01-10T03:24:59;103.20;;;39.93;;
73550;SDS011;61816;53.582;10.096;2024-01-10T03:27:25;96.43;;;37.10;;
73550;SDS011;61816;53.582;10.096;2024-01-10T03:29:50;107.30;;;38.80;;
73550;SDS011;61816;53.582;10.096;2024-01-10T03:32:15;96.10;;;36.83;;
73550;SDS011;61816;53.582;10.096;2024-01-10T03:34:41;98.80;;;37.27;;
73550;SDS011;61816;53.582;10.096;2024-01-10T03:37:07;93.53;;;36.83;;
73550;SDS011;61816;53.582;10.096;2024-01-10T03:39:33;124.10;;;42.90;;
73550;SDS011;61816;53.582;10.096;2024-01-10T03:41:58;94.40;;;37.63;;
73550;SDS011;61816;53.582;10.096;2024-01-10T03:44:23;103.53;;;38.97;;
73550;SDS011;61816;53.582;10.096;2024-01-10T03:46:49;108.07;;;39.60;;
73550;SDS011;61816;53.582;10.096;2024-01-10T03:49:14;101.90;;;36.17;;
73550;SDS011;61816;53.582;10.096;2024-01-10T03:51:40;108.60;;;40.07;;
73550;SDS011;61816;53.582;10.096;2024-01-10T03:54:05;101.00;;;37.67;;
73550;SDS011;61816;53.582;10.096;2024-01-10T03:56:31;108.23;;;39.60;;
73550;SDS011;61816;53.582;10.096;2024-01-10T03:58:56;104.37;;;38.23;;
73550;SDS011;61816;53.582;10.096;2024-01-10T04:01:22;98.47;;;38.43;;
73550;SDS011;61816;53.582;10.096;2024-01-10T04:03:48;107.80;;;39.10;;
73550;SDS011;61816;53.582;10.096;2024-01-10T04:06:14;100.63;;;36.80;;
73550;SDS011;61816;53.582;10.096;2024-01-10T04:08:39;108.83;;;40.13;;
73550;SDS011;61816;53.582;10.096;2024-01-10T04:11:04;101.67;;;36.93;;
73550;SDS011;61816;53.582;10.096;2024-01-10T04:13:30;111.40;;;39.67;;
73550;SDS011;61816;53.582;10.096;2024-01-10T04:15:55;102.67;;;35.93;;
73550;SDS011;61816;53.582;10.096;2024-01-10T04:18:20;111.50;;;41.33;;
73550;SDS011;61816;53.582;10.096;2024-01-10T04:20:47;94.93;;;38.13;;
73550;SDS011;61816;53.582;10.096;2024-01-10T04:23:12;98.67;;;36.07;;
73550;SDS011;61816;53.582;10.096;2024-01-10T04:25:38;96.53;;;38.00;;
73550;SDS011;61816;53.582;10.096;2024-01-10T04:28:04;95.73;;;37.57;;
73550;SDS011;61816;53.582;10.096;2024-01-10T04:30:30;96.50;;;37.47;;
73550;SDS011;61816;53.582;10.096;2024-01-10T04:32:55;94.20;;;36.87;;
73550;SDS011;61816;53.582;10.096;2024-01-10T04:35:20;121.97;;;39.80;;
73550;SDS011;61816;53.582;10.096;2024-01-10T04:37:46;178.33;;;73.93;;
73550;SDS011;61816;53.582;10.096;2024-01-10T04:40:11;97.83;;;37.00;;
73550;SDS011;61816;53.582;10.096;2024-01-10T04:42:37;107.90;;;39.53;;
73550;SDS011;61816;53.582;10.096;2024-01-10T04:45:02;102.67;;;38.00;;
73550;SDS011;61816;53.582;10.096;2024-01-10T04:47:28;97.63;;;38.30;;
73550;SDS011;61816;53.582;10.096;2024-01-10T04:49:53;117.87;;;42.03;;
73550;SDS011;61816;53.582;10.096;2024-01-10T04:52:18;102.83;;;39.90;;
73550;SDS011;61816;53.582;10.096;2024-01-10T04:54:44;109.73;;;41.17;;
73550;SDS011;61816;53.582;10.096;2024-01-10T04:57:09;103.90;;;41.33;;
73550;SDS011;61816;53.582;10.096;2024-01-10T04:59:34;104.70;;;42.93;;
73550;SDS011;61816;53.582;10.096;2024-01-10T05:02:00;89.63;;;36.53;;
73550;SDS011;61816;53.582;10.096;2024-01-10T05:04:25;100.47;;;37.87;;
73550;SDS011;61816;53.582;10.096;2024-01-10T05:06:50;85.40;;;35.60;;
73550;SDS011;61816;53.582;10.096;2024-01-10T05:09:16;98.30;;;36.17;;
73550;SDS011;61816;53.582;10.096;2024-01-10T05:11:42;87.63;;;34.37;;
73550;SDS011;61816;53.582;10.096;2024-01-10T05:14:08;92.07;;;36.43;;
73550;SDS011;61816;53.582;10.096;2024-01-10T05:16:33;84.57;;;33.77;;
73550;SDS011;61816;53.582;10.096;2024-01-10T05:19:00;75.17;;;31.53;;
73550;SDS011;61816;53.582;10.096;2024-01-10T05:21:28;83.37;;;35.07;;
73550;SDS011;61816;53.582;10.096;2024-01-10T05:23:57;74.67;;;31.83;;
73550;SDS011;61816;53.582;10.096;2024-01-10T05:26:22;80.93;;;31.13;;
73550;SDS011;61816;53.582;10.096;2024-01-10T05:28:48;85.93;;;33.17;;
73550;SDS011;61816;53.582;10.096;2024-01-10T05:31:13;71.13;;;29.17;;
73550;SDS011;61816;53.582;10.096;2024-01-10T05:33:39;68.20;;;29.47;;
73550;SDS011;61816;53.582;10.096;2024-01-10T05:36:04;63.50;;;28.67;;
73550;SDS011;61816;53.582;10.096;2024-01-10T05:38:29;60.23;;;28.40;;
73550;SDS011;61816;53.582;10.096;2024-01-10T05:40:55;57.93;;;24.77;;
73550;SDS011;61816;53.582;10.096;2024-01-10T05:43:20;61.87;;;27.47;;
73550;SDS011;61816;53.582;10.096;2024-01-10T05:45:46;54.67;;;24.23;;
73550;SDS011;61816;53.582;10.096;2024-01-10T05:48:12;48.80;;;22.80;;
73550;SDS011;61816;53.582;10.096;2024-01-10T05:50:37;52.07;;;23.40;;
73550;SDS011;61816;53.582;10.096;2024-01-10T05:53:05;53.60;;;24.80;;
73550;SDS011;61816;53.582;10.096;2024-01-10T05:55:31;56.77;;;26.17;;
73550;SDS011;61816;53.582;10.096;2024-01-10T05:57:56;56.93;;;26.43;;
73550;SDS011;61816;53.582;10.096;2024-01-10T06:00:21;50.63;;;22.07;;
73550;SDS011;61816;53.582;10.096;2024-01-10T06:02:47;49.87;;;24.50;;
73550;SDS011;61816;53.582;10.096;2024-01-10T06:05:12;50.53;;;24.23;;
73550;SDS011;61816;53.582;10.096;2024-01-10T06:07:38;52.30;;;25.33;;
73550;SDS011;61816;53.582;10.096;2024-01-10T06:10:06;53.97;;;26.27;;
73550;SDS011;61816;53.582;10.096;2024-01-10T06:12:32;50.60;;;24.50;;
73550;SDS011;61816;53.582;10.096;2024-01-10T06:14:57;53.50;;;25.23;;
73550;SDS011;61816;53.582;10.096;2024-01-10T06:17:23;51.23;;;22.00;;
73550;SDS011;61816;53.582;10.096;2024-01-10T06:19:49;47.47;;;22.87;;
73550;SDS011;61816;53.582;10.096;2024-01-10T06:22:15;46.57;;;20.90;;
73550;SDS011;61816;53.582;10.096;2024-01-10T06:24:41;51.53;;;20.63;;
73550;SDS011;61816;53.582;10.096;2024-01-10T06:27:07;49.87;;;22.80;;
73550;SDS011;61816;53.582;10.096;2024-01-10T06:29:33;51.27;;;19.80;;
73550;SDS011;61816;53.582;10.096;2024-01-10T06:31:59;44.57;;;20.87;;
73550;SDS011;61816;53.582;10.096;2024-01-10T06:34:26;49.50;;;21.10;;
73550;SDS011;61816;53.582;10.096;2024-01-10T06:36:52;41.33;;;20.47;;
73550;SDS011;61816;53.582;10.096;2024-01-10T06:39:17;53.53;;;23.03;;
73550;SDS011;61816;53.582;10.096;2024-01-10T06:41:46;60.67;;;26.00;;
73550;SDS011;61816;53.582;10.096;2024-01-10T06:44:12;48.73;;;23.77;;
73550;SDS011;61816;53.582;10.096;2024-01-10T06:46:37;54.00;;;24.93;;
73550;SDS011;61816;53.582;10.096;2024-01-10T06:49:03;57.97;;;25.10;;
73550;SDS011;61816;53.582;10.096;2024-01-10T06:51:28;56.40;;;25.60;;
73550;SDS011;61816;53.582;10.096;2024-01-10T06:53:53;48.83;;;21.00;;
73550;SDS011;61816;53.582;10.096;2024-01-10T06:56:25;46.73;;;23.67;;
73550;SDS011;61816;53.582;10.096;2024-01-10T06:58:51;44.53;;;21.87;;
73550;SDS011;61816;53.582;10.096;2024-01-10T07:01:16;52.50;;;23.80;;
73550;SDS011;61816;53.582;10.096;2024-01-10T07:03:41;64.07;;;27.30;;
73550;SDS011;61816;53.582;10.096;2024-01-10T07:06:07;56.73;;;24.80;;
73550;SDS011;61816;53.582;10.096;2024-01-10T07:08:33;55.67;;;27.67;;
73550;SDS011;61816;53.582;10.096;2024-01-10T07:10:58;59.40;;;28.40;;
73550;SDS011;61816;53.582;10.096;2024-01-10T07:13:23;57.40;;;26.33;;
73550;SDS011;61816;53.582;10.096;2024-01-10T07:15:49;51.63;;;25.00;;
73550;SDS011;61816;53.582;10.096;2024-01-10T07:18:16;58.57;;;26.03;;
73550;SDS011;61816;53.582;10.096;2024-01-10T07:20:44;54.53;;;26.00;;
73550;SDS011;61816;53.582;10.096;2024-01-10T07:23:09;51.73;;;23.27;;
73550;SDS011;61816;53.582;10.096;2024-01-10T07:25:35;53.83;;;25.57;;
73550;SDS011;61816;53.582;10.096;2024-01-10T07:28:02;54.20;;;25.60;;
73550;SDS011;61816;53.582;10.096;2024-01-10T07:30:28;63.23;;;24.27;;
73550;SDS011;61816;53.582;10.096;2024-01-10T07:32:57;55.47;;;23.93;;
73550;SDS011;61816;53.582;10.096;2024-01-10T07:35:23;51.73;;;23.03;;
73550;SDS011;61816;53.582;10.096;2024-01-10T07:37:48;52.63;;;25.03;;
73550;SDS011;61816;53.582;10.096;2024-01-10T07:40:14;62.27;;;28.03;;
73550;SDS011;61816;53.582;10.096;2024-01-10T07:42:39;68.50;;;27.70;;
73550;SDS011;61816;53.582;10.096;2024-01-10T07:45:05;65.23;;;25.57;;
73550;SDS011;61816;53.582;10.096;2024-01-10T07:47:31;58.90;;;25.87;;
73550;SDS011;61816;53.582;10.096;2024-01-10T07:49:57;55.63;;;26.00;;
73550;SDS011;61816;53.582;10.096;2024-01-10T07:52:22;55.57;;;26.17;;
73550;SDS011;61816;53.582;10.096;2024-01-10T07:54:48;60.80;;;26.90;;
73550;SDS011;61816;53.582;10.096;2024-01-10T07:57:13;55.20;;;24.67;;
73550;SDS011;61816;53.582;10.096;2024-01-10T07:59:39;64.43;;;25.83;;
73550;SDS011;61816;53.582;10.096;2024-01-10T08:02:05;61.77;;;26.00;;
73550;SDS011;61816;53.582;10.096;2024-01-10T08:04:30;56.20;;;24.63;;
73550;SDS011;61816;53.582;10.096;2024-01-10T08:06:56;58.60;;;24.97;;
73550;SDS011;61816;53.582;10.096;2024-01-10T08:09:22;60.00;;;25.70;;
73550;SDS011;61816;53.582;10.096;2024-01-10T08:11:49;55.97;;;25.07;;
73550;SDS011;61816;53.582;10.096;2024-01-10T08:14:14;58.20;;;24.80;;
73550;SDS011;61816;53.582;10.096;2024-01-10T08:16:40;50.43;;;24.10;;
73550;SDS011;61816;53.582;10.096;2024-01-10T08:19:06;45.33;;;20.50;;
73550;SDS011;61816;53.582;10.096;2024-01-10T08:21:32;51.10;;;24.53;;
73550;SDS011;61816;53.582;10.096;2024-01-10T08:23:57;56.80;;;23.53;;
73550;SDS011;61816;53.582;10.096;2024-01-10T08:26:23;47.87;;;21.87;;
73550;SDS011;61816;53.582;10.096;2024-01-10T08:28:48;50.33;;;22.90;;
73550;SDS011;61816;53.582;10.096;2024-01-10T08:31:16;59.57;;;24.03;;
73550;SDS011;61816;53.582;10.096;2024-01-10T08:33:42;58.30;;;27.00;;
73550;SDS011;61816;53.582;10.096;2024-01-10T08:36:07;52.23;;;24.10;;
73550;SDS011;61816;53.582;10.096;2024-01-10T08:38:34;52.37;;;23.83;;
73550;SDS011;61816;53.582;10.096;2024-01-10T08:41:00;50.60;;;23.30;;
73550;SDS011;61816;53.582;10.096;2024-01-10T08:43:26;51.53;;;23.43;;
73550;SDS011;61816;53.582;10.096;2024-01-10T08:45:52;55.33;;;24.17;;
73550;SDS011;61816;53.582;10.096;2024-01-10T08:48:17;50.57;;;23.50;;
73550;SDS011;61816;53.582;10.096;2024-01-10T08:50:42;53.70;;;22.30;;
73550;SDS011;61816;53.582;10.096;2024-01-10T08:53:09;47.03;;;22.80;;
73550;SDS011;61816;53.582;10.096;2024-01-10T08:55:35;51.30;;;22.77;;
73550;SDS011;61816;53.582;10.096;2024-01-10T08:58:02;50.57;;;21.67;;
73550;SDS011;61816;53.582;10.096;2024-01-10T09:00:28;50.53;;;24.30;;
73550;SDS011;61816;53.582;10.096;2024-01-10T09:02:54;49.23;;;22.87;;
73550;SDS011;61816;53.582;10.096;2024-01-10T09:05:20;54.27;;;22.53;;
73550;SDS011;61816;53.582;10.096;2024-01-10T09:07:47;50.60;;;23.53;;
73550;SDS011;61816;53.582;10.096;2024-01-10T09:10:12;51.03;;;24.00;;
73550;SDS011;61816;53.582;10.096;2024-01-10T09:12:38;57.30;;;22.77;;
73550;SDS011;61816;53.582;10.096;2024-01-10T09:15:03;56.67;;;27.20;;
73550;SDS011;61816;53.582;10.096;2024-01-10T09:17:29;58.77;;;25.77;;
73550;SDS011;61816;53.582;10.096;2024-01-10T09:19:54;59.17;;;25.73;;
73550;SDS011;61816;53.582;10.096;2024-01-10T09:22:19;52.30;;;23.93;;
73550;SDS011;61816;53.582;10.096;2024-01-10T09:24:45;59.97;;;25.83;;
73550;SDS011;61816;53.582;10.096;2024-01-10T09:27:10;57.97;;;25.73;;
73550;SDS011;61816;53.582;10.096;2024-01-10T09:29:36;56.57;;;25.50;;
73550;SDS011;61816;53.582;10.096;2024-01-10T09:32:02;50.87;;;23.47;;
73550;SDS011;61816;53.582;10.096;2024-01-10T09:34:27;46.80;;;22.10;;
73550;SDS011;61816;53.582;10.096;2024-01-10T09:36:53;49.50;;;23.70;;
73550;SDS011;61816;53.582;10.096;2024-01-10T09:39:19;58.17;;;24.93;;
73550;SDS011;61816;53.582;10.096;2024-01-10T09:41:47;54.83;;;24.43;;
73550;SDS011;61816;53.582;10.096;2024-01-10T09:44:15;55.50;;;25.42;;
73550;SDS011;61816;53.582;10.096;2024-01-10T09:46:46;60.43;;;25.93;;
73550;SDS011;61816;53.582;10.096;2024-01-10T09:49:13;55.90;;;26.40;;
73550;SDS011;61816;53.582;10.096;2024-01-10T09:51:39;49.00;;;23.83;;
73550;SDS011;61816;53.582;10.096;2024-01-10T09:54:04;53.17;;;25.57;;
73550;SDS011;61816;53.582;10.096;2024-01-10T09:56:30;57.57;;;26.30;;
73550;SDS011;61816;53.582;10.096;2024-01-10T09:58:58;59.30;;;25.37;;
73550;SDS011;61816;53.582;10.096;2024-01-10T10:01:23;48.57;;;24.30;;
73550;SDS011;61816;53.582;10.096;2024-01-10T10:03:50;45.10;;;21.90;;
73550;SDS011;61816;53.582;10.096;2024-01-10T10:06:15;62.90;;;25.90;;
73550;SDS011;61816;53.582;10.096;2024-01-10T10:08:41;62.80;;;27.57;;
73550;SDS011;61816;53.582;10.096;2024-01-10T10:11:08;51.77;;;24.10;;
73550;SDS011;61816;53.582;10.096;2024-01-10T10:13:38;53.47;;;23.48;;
73550;SDS011;61816;53.582;10.096;2024-01-10T10:16:07;48.03;;;23.97;;
73550;SDS011;61816;53.582;10.096;2024-01-10T10:18:38;52.10;;;21.17;;
73550;SDS011;61816;53.582;10.096;2024-01-10T10:21:07;47.63;;;21.00;;
73550;SDS011;61816;53.582;10.096;2024-01-10T10:23:34;43.73;;;21.13;;
73550;SDS011;61816;53.582;10.096;2024-01-10T10:26:09;49.13;;;21.90;;
73550;SDS011;61816;53.582;10.096;2024-01-10T10:28:35;48.23;;;21.70;;
73550;SDS011;61816;53.582;10.096;2024-01-10T10:31:01;40.63;;;20.20;;
73550;SDS011;61816;53.582;10.096;2024-01-10T10:33:27;42.67;;;21.63;;
73550;SDS011;61816;53.582;10.096;2024-01-10T10:35:53;48.83;;;20.73;;
73550;SDS011;61816;53.582;10.096;2024-01-10T10:38:21;49.93;;;23.80;;
73550;SDS011;61816;53.582;10.096;2024-01-10T10:40:47;48.57;;;22.03;;
73550;SDS011;61816;53.582;10.096;2024-01-10T10:43:13;48.93;;;23.37;;
73550;SDS011;61816;53.582;10.096;2024-01-10T10:45:42;52.53;;;23.20;;
73550;SDS011;61816;53.582;10.096;2024-01-10T10:48:16;54.27;;;24.63;;
73550;SDS011;61816;53.582;10.096;2024-01-10T10:50:45;48.87;;;23.20;;
73550;SDS011;61816;53.582;10.096;2024-01-10T10:53:33;53.57;;;23.63;;
73550;SDS011;61816;53.582;10.096;2024-01-10T10:56:03;49.93;;;24.43;;
73550;SDS011;61816;53.582;10.096;2024-01-10T10:58:36;49.37;;;23.53;;
73550;SDS011;61816;53.582;10.096;2024-01-10T11:01:05;43.20;;;21.90;;
73550;SDS011;61816;53.582;10.096;2024-01-10T11:03:33;47.30;;;22.50;;
73550;SDS011;61816;53.582;10.096;2024-01-10T11:06:01;39.57;;;20.10;;
73550;SDS011;61816;53.582;10.096;2024-01-10T11:08:27;39.20;;;20.40;;
73550;SDS011;61816;53.582;10.096;2024-01-10T11:10:55;37.90;;;20.07;;
73550;SDS011;61816;53.582;10.096;2024-01-10T11:13:42;37.40;;;19.57;;
73550;SDS011;61816;53.582;10.096;2024-01-10T11:21:50;40.40;;;17.87;;
73550;SDS011;61816;53.582;10.096;2024-01-10T11:24:37;37.03;;;20.03;;
73550;SDS011;61816;53.582;10.096;2024-01-10T11:27:13;35.90;;;19.53;;
73550;SDS011;61816;53.582;10.096;2024-01-10T11:29:40;36.17;;;18.13;;
73550;SDS011;61816;53.582;10.096;2024-01-10T11:32:07;37.37;;;18.20;;
73550;SDS011;61816;53.582;10.096;2024-01-10T11:34:48;30.77;;;12.87;;
73550;SDS011;61816;53.582;10.096;2024-01-10T11:37:15;22.60;;;12.13;;
73550;SDS011;61816;53.582;10.096;2024-01-10T11:39:43;22.27;;;12.00;;
73550;SDS011;61816;53.582;10.096;2024-01-10T11:42:09;26.50;;;13.53;;
73550;SDS011;61816;53.582;10.096;2024-01-10T11:44:35;28.00;;;13.83;;
73550;SDS011;61816;53.582;10.096;2024-01-10T11:47:11;32.17;;;14.67;;
73550;SDS011;61816;53.582;10.096;2024-01-10T11:49:40;25.80;;;13.80;;
73550;SDS011;61816;53.582;10.096;2024-01-10T11:52:06;33.10;;;17.27;;
73550;SDS011;61816;53.582;10.096;2024-01-10T11:54:43;24.53;;;12.47;;
73550;SDS011;61816;53.582;10.096;2024-01-10T11:57:10;24.70;;;12.47;;
73550;SDS011;61816;53.582;10.096;2024-01-10T11:59:38;27.03;;;14.00;;
73550;SDS011;61816;53.582;10.096;2024-01-10T12:02:08;23.40;;;12.23;;
73550;SDS011;61816;53.582;10.096;2024-01-10T12:04:34;28.87;;;14.17;;
73550;SDS011;61816;53.582;10.096;2024-01-10T12:07:01;23.43;;;12.53;;
73550;SDS011;61816;53.582;10.096;2024-01-10T12:09:28;25.57;;;12.00;;
73550;SDS011;61816;53.582;10.096;2024-01-10T12:11:53;26.00;;;13.03;;
73550;SDS011;61816;53.582;10.096;2024-01-10T12:14:20;31.20;;;15.13;;
73550;SDS011;61816;53.582;10.096;2024-01-10T12:16:46;32.30;;;13.83;;
73550;SDS011;61816;53.582;10.096;2024-01-10T12:19:12;29.20;;;13.33;;
73550;SDS011;61816;53.582;10.096;2024-01-10T12:21:37;22.13;;;11.93;;
73550;SDS011;61816;53.582;10.096;2024-01-10T12:24:05;25.10;;;12.13;;
73550;SDS011;61816;53.582;10.096;2024-01-10T12:26:32;30.10;;;13.70;;
73550;SDS011;61816;53.582;10.096;2024-01-10T12:28:58;23.00;;;12.47;;
73550;SDS011;61816;53.582;10.096;2024-01-10T12:31:28;28.17;;;12.93;;
73550;SDS011;61816;53.582;10.096;2024-01-10T12:33:54;26.83;;;12.43;;
73550;SDS011;61816;53.582;10.096;2024-01-10T12:36:20;24.87;;;12.40;;
73550;SDS011;61816;53.582;10.096;2024-01-10T12:38:46;27.03;;;11.77;;
73550;SDS011;61816;53.582;10.096;2024-01-10T12:41:12;25.83;;;12.87;;
73550;SDS011;61816;53.582;10.096;2024-01-10T12:43:40;26.03;;;12.30;;
73550;SDS011;61816;53.582;10.096;2024-01-10T12:46:06;26.07;;;13.60;;
73550;SDS011;61816;53.582;10.096;2024-01-10T12:48:39;26.60;;;13.07;;
73550;SDS011;61816;53.582;10.096;2024-01-10T12:51:09;25.33;;;13.23;;
73550;SDS011;61816;53.582;10.096;2024-01-10T12:53:37;29.00;;;13.07;;
73550;SDS011;61816;53.582;10.096;2024-01-10T12:56:07;25.03;;;12.73;;
73550;SDS011;61816;53.582;10.096;2024-01-10T12:58:34;24.10;;;12.53;;
73550;SDS011;61816;53.582;10.096;2024-01-10T13:01:04;26.83;;;13.30;;
73550;SDS011;61816;53.582;10.096;2024-01-10T13:03:30;26.90;;;14.13;;
73550;SDS011;61816;53.582;10.096;2024-01-10T13:05:55;26.27;;;12.90;;
73550;SDS011;61816;53.582;10.096;2024-01-10T13:08:21;25.67;;;12.83;;
73550;SDS011;61816;53.582;10.096;2024-01-10T13:10:47;21.93;;;12.00;;
73550;SDS011;61816;53.582;10.096;2024-01-10T13:13:13;31.73;;;13.90;;
73550;SDS011;61816;53.582;10.096;2024-01-10T13:15:39;34.73;;;15.30;;
73550;SDS011;61816;53.582;10.096;2024-01-10T13:18:05;32.10;;;14.10;;
73550;SDS011;61816;53.582;10.096;2024-01-10T13:20:31;28.67;;;14.67;;
73550;SDS011;61816;53.582;10.096;2024-01-10T13:22:57;29.27;;;14.70;;
73550;SDS011;61816;53.582;10.096;2024-01-10T13:25:22;28.77;;;14.57;;
73550;SDS011;61816;53.582;10.096;2024-01-10T13:27:51;32.00;;;15.13;;
73550;SDS011;61816;53.582;10.096;2024-01-10T13:30:17;31.43;;;15.77;;
73550;SDS011;61816;53.582;10.096;2024-01-10T13:32:43;28.70;;;15.03;;
73550;SDS011;61816;53.582;10.096;2024-01-10T13:35:09;25.17;;;13.97;;
73550;SDS011;61816;53.582;10.096;2024-01-10T13:37:38;28.80;;;14.30;;
73550;SDS011;61816;53.582;10.096;2024-01-10T13:40:05;29.37;;;14.70;;
73550;SDS011;61816;53.582;10.096;2024-01-10T13:42:32;29.27;;;15.67;;
73550;SDS011;61816;53.582;10.096;2024-01-10T13:44:58;29.43;;;14.40;;
73550;SDS011;61816;53.582;10.096;2024-01-10T13:47:23;28.43;;;15.50;;
73550;SDS011;61816;53.582;10.096;2024-01-10T13:49:48;34.60;;;17.27;;
73550;SDS011;61816;53.582;10.096;2024-01-10T13:52:14;37.53;;;18.80;;
73550;SDS011;61816;53.582;10.096;2024-01-10T13:54:39;28.33;;;16.40;;
73550;SDS011;61816;53.582;10.096;2024-01-10T13:57:04;28.57;;;14.17;;
73550;SDS011;61816;53.582;10.096;2024-01-10T13:59:30;34.77;;;16.00;;
73550;SDS011;61816;53.582;10.096;2024-01-10T14:01:56;29.03;;;14.50;;
73550;SDS011;61816;53.582;10.096;2024-01-10T14:04:22;29.03;;;15.23;;
73550;SDS011;61816;53.582;10.096;2024-01-10T14:06:48;31.40;;;14.17;;